Elbella — 9HA2358 — position and weather

sailwx.info

Track history (hours):
 
Tides and Currents Weather Stations Pressure Air Temp Water Temp Dewpoint Dewpoint Depression Visibility Wind Speed Wind Dir Waves Ship Positions

Elbella

Last reported at 2014-Jul-22 20:17 UTC. Time now 2014-Jul-24 12:20 UTC.
Position N 35°45' E 030°21'.

Length 176 m; draft 9.9 m.

Type: Ship (hazmat cat A). MMSI: 248422000.

Date/timePositionNaut miles runAvg speedWind from/ knotsBaromVisibWave heightAir tempDewpointWater temp
2014-Jul-22 20:17N 35°45' E 030°21'3418.5
2014-Jul-22 18:28N 35°45' E 029°39'18118.1
2014-Jul-22 08:30N 36°08' E 025°58'1818.9
2014-Jul-22 07:34N 36°05' E 025°36'1918.8
2014-Jul-22 06:34N 36°02' E 025°13'1918.4
2014-Jul-22 05:32N 35°59' E 024°50'1818.6
2014-Jul-22 04:33N 35°57' E 024°28'1918.6
2014-Jul-22 03:34N 35°54' E 024°05'2318.7
2014-Jul-22 02:20N 35°50' E 023°37'1418.7
2014-Jul-22 01:33N 35°43' E 023°22'41418.8
2014-Jul-21 03:34N 35°44' E 014°52'1616.1
2014-Jul-21 02:33N 35°49' E 014°33'1 0.8
2014-Jul-21 01:23N 35°49' E 014°32'0 0.0
2014-Jul-20 23:32N 35°49' E 014°32'0 0.0
2014-Jul-20 22:32N 35°49' E 014°32'0 0.1
2014-Jul-20 21:33N 35°49' E 014°32'4 3.9
2014-Jul-20 20:33N 35°49' E 014°37'0 0.2
2014-Jul-20 19:33N 35°49' E 014°37'0 0.2
2014-Jul-20 18:33N 35°49' E 014°37'1 0.6
2014-Jul-20 17:33N 35°49' E 014°37'3 2.4
2014-Jul-20 16:31N 35°50' E 014°40'0 0.0
2014-Jul-20 15:31N 35°50' E 014°40'0 0.1
2014-Jul-20 14:31N 35°50' E 014°40'0 0.0
2014-Jul-20 13:31N 35°50' E 014°40'0 0.0
2014-Jul-20 12:31N 35°50' E 014°40'0 0.0
2014-Jul-20 11:28N 35°50' E 014°40'0 0.0
2014-Jul-20 10:31N 35°50' E 014°40'0 0.0
2014-Jul-20 09:31N 35°50' E 014°40'0 0.0
2014-Jul-20 08:31N 35°50' E 014°40'0 0.0
2014-Jul-20 07:31N 35°50' E 014°40'0 0.0
2014-Jul-20 06:31N 35°50' E 014°40'0 0.0
2014-Jul-20 05:28N 35°50' E 014°40'0 0.0
2014-Jul-20 04:31N 35°50' E 014°40'0 0.0
2014-Jul-20 03:19N 35°50' E 014°40'0 0.0
2014-Jul-20 02:31N 35°50' E 014°40'0 0.0
2014-Jul-20 01:28N 35°50' E 014°40'0 0.0
2014-Jul-20 00:31N 35°50' E 014°40'0 0.0
2014-Jul-19 23:28N 35°50' E 014°40'0 0.0
2014-Jul-19 22:31N 35°50' E 014°40'0 0.0
2014-Jul-19 21:31N 35°50' E 014°40'0 0.1
2014-Jul-19 20:31N 35°50' E 014°40'0 0.0
2014-Jul-19 19:28N 35°50' E 014°40'0 0.1
2014-Jul-19 18:31N 35°50' E 014°40'1 0.8
2014-Jul-19 17:33N 35°50' E 014°39'5 2.5
2014-Jul-19 15:21N 35°49' E 014°33'0 0.0
2014-Jul-19 14:33N 35°49' E 014°33'0 0.0
2014-Jul-19 13:33N 35°49' E 014°33'0 0.0
2014-Jul-19 12:33N 35°49' E 014°33'0 0.0
2014-Jul-19 07:08N 35°49' E 014°33'0 0.1
2014-Jul-19 05:29N 35°49' E 014°33'3 3.1
2014-Jul-19 04:33N 35°48' E 014°36'7 7.2
2014-Jul-19 03:34N 35°52' E 014°43'6 6.1
2014-Jul-19 02:32N 35°56' E 014°49'0 0.0
2014-Jul-19 01:32N 35°56' E 014°49'0 0.0
2014-Jul-19 00:23N 35°56' E 014°49'0 0.0
2014-Jul-18 23:32N 35°56' E 014°49'0 0.1
2014-Jul-18 22:32N 35°56' E 014°49'0 0.0
2014-Jul-18 21:32N 35°56' E 014°49'0 0.0
2014-Jul-18 19:17N 35°56' E 014°49'0 0.1
2014-Jul-18 18:29N 35°56' E 014°49'0 0.0
2014-Jul-18 17:29N 35°56' E 014°49'0 0.0
2014-Jul-18 16:32N 35°56' E 014°49'0 0.0
2014-Jul-18 15:32N 35°56' E 014°49'0 0.0
2014-Jul-18 14:32N 35°56' E 014°49'0 0.0
2014-Jul-18 13:32N 35°56' E 014°49'0 0.0
2014-Jul-18 12:32N 35°56' E 014°49'0 0.0
2014-Jul-18 11:32N 35°56' E 014°49'0 0.0
2014-Jul-18 10:32N 35°56' E 014°49'0 0.0
2014-Jul-18 09:32N 35°56' E 014°49'0 0.0
2014-Jul-18 08:32N 35°56' E 014°49'0 0.0
2014-Jul-18 07:31N 35°56' E 014°49'0 0.0
2014-Jul-17 11:34N 35°56' E 014°49'0 0.0
2014-Jul-17 10:34N 35°56' E 014°49'0 0.1
2014-Jul-17 09:34N 35°56' E 014°49'0 0.1
2014-Jul-17 08:34N 35°56' E 014°49'0 0.1
2014-Jul-17 07:33N 35°56' E 014°49'0 0.0
2014-Jul-17 06:33N 35°56' E 014°49'2 2.1
2014-Jul-17 05:33N 35°57' E 014°46'3014.0
2014-Jul-17 03:27N 36°11' E 014°14'1415.1
2014-Jul-17 02:33N 36°16' E 013°59'1515.2
2014-Jul-17 01:33N 36°23' E 013°42'1515.0
2014-Jul-17 00:34N 36°29' E 013°25'1514.9
2014-Jul-16 23:34N 36°34' E 013°08'1515.1
2014-Jul-16 22:34N 36°40' E 012°50'8215.5
2014-Jul-16 17:15N 37°18' E 011°19'41314.8
2014-Jul-15 13:17N 40°30' E 003°28'1114.9
2014-Jul-15 12:33N 40°34' E 003°15'1514.9
2014-Jul-15 11:33N 40°39' E 002°56'1615.6
2014-Jul-15 10:33N 40°44' E 002°37'1414.4
2014-Jul-15 09:33N 40°49' E 002°19'1514.8
2014-Jul-15 08:33N 40°53' E 002°00'1515.1
2014-Jul-15 07:33N 40°58' E 001°41'1514.8
2014-Jul-15 06:33N 41°03' E 001°23'5 2.3
2014-Jul-15 04:29N 41°05' E 001°17'0 0.0
2014-Jul-15 02:29N 41°05' E 001°17'0 0.0
2014-Jul-15 01:29N 41°05' E 001°17'0 0.0
2014-Jul-15 00:23N 41°05' E 001°17'0 0.0
2014-Jul-14 23:23N 41°05' E 001°17'0 0.0
2014-Jul-14 22:23N 41°05' E 001°17'0 0.0
2014-Jul-14 21:29N 41°05' E 001°17'0 0.0
2014-Jul-14 16:29N 41°05' E 001°17'0 0.0
2014-Jul-14 15:29N 41°05' E 001°17'0 0.0
2014-Jul-14 14:26N 41°05' E 001°17'0 0.0
2014-Jul-14 13:32N 41°05' E 001°17'0 0.0
2014-Jul-14 11:29N 41°05' E 001°17'0 0.0
2014-Jul-14 10:29N 41°05' E 001°17'0 0.0
2014-Jul-14 08:17N 41°05' E 001°17'0 0.0
2014-Jul-14 06:05N 41°05' E 001°17'0 0.0
2014-Jul-14 04:11N 41°05' E 001°17'0 0.0
2014-Jul-14 03:29N 41°05' E 001°17'0 0.0
2014-Jul-14 01:29N 41°05' E 001°17'0 0.0
2014-Jul-14 00:29N 41°05' E 001°17'0 0.0
2014-Jul-13 23:29N 41°05' E 001°17'0 0.0
2014-Jul-13 22:32N 41°05' E 001°17'0 0.0
2014-Jul-13 20:17N 41°05' E 001°17'0 0.0
2014-Jul-13 19:17N 41°05' E 001°17'0 0.1
2014-Jul-13 18:32N 41°05' E 001°17'0 0.1
2014-Jul-13 17:26N 41°05' E 001°17'0 0.0
2014-Jul-13 16:29N 41°05' E 001°17'0 0.0
2014-Jul-13 14:23N 41°05' E 001°17'0 0.0
2014-Jul-13 02:17N 41°05' E 001°17'0 0.0
2014-Jul-13 01:05N 41°05' E 001°17'0 0.0
2014-Jul-13 00:29N 41°05' E 001°17'0 0.0
2014-Jul-12 23:29N 41°05' E 001°17'  
Track history (hours):
 
Tides and Currents Weather Stations Pressure Air Temp Water Temp Dewpoint Dewpoint Depression Visibility Wind Speed Wind Dir Waves Ship Positions

Elbella

Last reported at 2014-Jul-22 20:17 UTC. Time now 2014-Jul-24 12:20 UTC.
Position N 35°45' E 030°21'.

Length 176 m; draft 9.9 m.

Type: Ship (hazmat cat A). MMSI: 248422000.

Date/timePositionNaut miles runAvg speedWind from/ knotsBaromVisibWave heightAir tempDewpointWater temp
2014-Jul-22 20:17N 35°45' E 030°21'3418.5
2014-Jul-22 18:28N 35°45' E 029°39'18118.1
2014-Jul-22 08:30N 36°08' E 025°58'1818.9
2014-Jul-22 07:34N 36°05' E 025°36'1918.8
2014-Jul-22 06:34N 36°02' E 025°13'1918.4
2014-Jul-22 05:32N 35°59' E 024°50'1818.6
2014-Jul-22 04:33N 35°57' E 024°28'1918.6
2014-Jul-22 03:34N 35°54' E 024°05'2318.7
2014-Jul-22 02:20N 35°50' E 023°37'1418.7
2014-Jul-22 01:33N 35°43' E 023°22'41418.8
2014-Jul-21 03:34N 35°44' E 014°52'1616.1
2014-Jul-21 02:33N 35°49' E 014°33'1 0.8
2014-Jul-21 01:23N 35°49' E 014°32'0 0.0
2014-Jul-20 23:32N 35°49' E 014°32'0 0.0
2014-Jul-20 22:32N 35°49' E 014°32'0 0.1
2014-Jul-20 21:33N 35°49' E 014°32'4 3.9
2014-Jul-20 20:33N 35°49' E 014°37'0 0.2
2014-Jul-20 19:33N 35°49' E 014°37'0 0.2
2014-Jul-20 18:33N 35°49' E 014°37'1 0.6
2014-Jul-20 17:33N 35°49' E 014°37'3 2.4
2014-Jul-20 16:31N 35°50' E 014°40'0 0.0
2014-Jul-20 15:31N 35°50' E 014°40'0 0.1
2014-Jul-20 14:31N 35°50' E 014°40'0 0.0
2014-Jul-20 13:31N 35°50' E 014°40'0 0.0
2014-Jul-20 12:31N 35°50' E 014°40'0 0.0
2014-Jul-20 11:28N 35°50' E 014°40'0 0.0
2014-Jul-20 10:31N 35°50' E 014°40'0 0.0
2014-Jul-20 09:31N 35°50' E 014°40'0 0.0
2014-Jul-20 08:31N 35°50' E 014°40'0 0.0
2014-Jul-20 07:31N 35°50' E 014°40'0 0.0
2014-Jul-20 06:31N 35°50' E 014°40'0 0.0
2014-Jul-20 05:28N 35°50' E 014°40'0 0.0
2014-Jul-20 04:31N 35°50' E 014°40'0 0.0
2014-Jul-20 03:19N 35°50' E 014°40'0 0.0
2014-Jul-20 02:31N 35°50' E 014°40'0 0.0
2014-Jul-20 01:28N 35°50' E 014°40'0 0.0
2014-Jul-20 00:31N 35°50' E 014°40'0 0.0
2014-Jul-19 23:28N 35°50' E 014°40'0 0.0
2014-Jul-19 22:31N 35°50' E 014°40'0 0.0
2014-Jul-19 21:31N 35°50' E 014°40'0 0.1
2014-Jul-19 20:31N 35°50' E 014°40'0 0.0
2014-Jul-19 19:28N 35°50' E 014°40'0 0.1
2014-Jul-19 18:31N 35°50' E 014°40'1 0.8
2014-Jul-19 17:33N 35°50' E 014°39'5 2.5
2014-Jul-19 15:21N 35°49' E 014°33'0 0.0
2014-Jul-19 14:33N 35°49' E 014°33'0 0.0
2014-Jul-19 13:33N 35°49' E 014°33'0 0.0
2014-Jul-19 12:33N 35°49' E 014°33'0 0.0
2014-Jul-19 07:08N 35°49' E 014°33'0 0.1
2014-Jul-19 05:29N 35°49' E 014°33'3 3.1
2014-Jul-19 04:33N 35°48' E 014°36'7 7.2
2014-Jul-19 03:34N 35°52' E 014°43'6 6.1
2014-Jul-19 02:32N 35°56' E 014°49'0 0.0
2014-Jul-19 01:32N 35°56' E 014°49'0 0.0
2014-Jul-19 00:23N 35°56' E 014°49'0 0.0
2014-Jul-18 23:32N 35°56' E 014°49'0 0.1
2014-Jul-18 22:32N 35°56' E 014°49'0 0.0
2014-Jul-18 21:32N 35°56' E 014°49'0 0.0
2014-Jul-18 19:17N 35°56' E 014°49'0 0.1
2014-Jul-18 18:29N 35°56' E 014°49'0 0.0
2014-Jul-18 17:29N 35°56' E 014°49'0 0.0
2014-Jul-18 16:32N 35°56' E 014°49'0 0.0
2014-Jul-18 15:32N 35°56' E 014°49'0 0.0
2014-Jul-18 14:32N 35°56' E 014°49'0 0.0
2014-Jul-18 13:32N 35°56' E 014°49'0 0.0
2014-Jul-18 12:32N 35°56' E 014°49'0 0.0
2014-Jul-18 11:32N 35°56' E 014°49'0 0.0
2014-Jul-18 10:32N 35°56' E 014°49'0 0.0
2014-Jul-18 09:32N 35°56' E 014°49'0 0.0
2014-Jul-18 08:32N 35°56' E 014°49'0 0.0
2014-Jul-18 07:31N 35°56' E 014°49'0 0.0
2014-Jul-17 11:34N 35°56' E 014°49'0 0.0
2014-Jul-17 10:34N 35°56' E 014°49'0 0.1
2014-Jul-17 09:34N 35°56' E 014°49'0 0.1
2014-Jul-17 08:34N 35°56' E 014°49'0 0.1
2014-Jul-17 07:33N 35°56' E 014°49'0 0.0
2014-Jul-17 06:33N 35°56' E 014°49'2 2.1
2014-Jul-17 05:33N 35°57' E 014°46'3014.0
2014-Jul-17 03:27N 36°11' E 014°14'1415.1
2014-Jul-17 02:33N 36°16' E 013°59'1515.2
2014-Jul-17 01:33N 36°23' E 013°42'1515.0
2014-Jul-17 00:34N 36°29' E 013°25'1514.9
2014-Jul-16 23:34N 36°34' E 013°08'1515.1
2014-Jul-16 22:34N 36°40' E 012°50'8215.5
2014-Jul-16 17:15N 37°18' E 011°19'41314.8
2014-Jul-15 13:17N 40°30' E 003°28'1114.9
2014-Jul-15 12:33N 40°34' E 003°15'1514.9
2014-Jul-15 11:33N 40°39' E 002°56'1615.6
2014-Jul-15 10:33N 40°44' E 002°37'1414.4
2014-Jul-15 09:33N 40°49' E 002°19'1514.8
2014-Jul-15 08:33N 40°53' E 002°00'1515.1
2014-Jul-15 07:33N 40°58' E 001°41'1514.8
2014-Jul-15 06:33N 41°03' E 001°23'5 2.3
2014-Jul-15 04:29N 41°05' E 001°17'0 0.0
2014-Jul-15 02:29N 41°05' E 001°17'0 0.0
2014-Jul-15 01:29N 41°05' E 001°17'0 0.0
2014-Jul-15 00:23N 41°05' E 001°17'0 0.0
2014-Jul-14 23:23N 41°05' E 001°17'0 0.0
2014-Jul-14 22:23N 41°05' E 001°17'0 0.0
2014-Jul-14 21:29N 41°05' E 001°17'0 0.0
2014-Jul-14 16:29N 41°05' E 001°17'0 0.0
2014-Jul-14 15:29N 41°05' E 001°17'0 0.0
2014-Jul-14 14:26N 41°05' E 001°17'0 0.0
2014-Jul-14 13:32N 41°05' E 001°17'0 0.0
2014-Jul-14 11:29N 41°05' E 001°17'0 0.0
2014-Jul-14 10:29N 41°05' E 001°17'0 0.0
2014-Jul-14 08:17N 41°05' E 001°17'0 0.0
2014-Jul-14 06:05N 41°05' E 001°17'0 0.0
2014-Jul-14 04:11N 41°05' E 001°17'0 0.0
2014-Jul-14 03:29N 41°05' E 001°17'0 0.0
2014-Jul-14 01:29N 41°05' E 001°17'0 0.0
2014-Jul-14 00:29N 41°05' E 001°17'0 0.0
2014-Jul-13 23:29N 41°05' E 001°17'0 0.0
2014-Jul-13 22:32N 41°05' E 001°17'0 0.0
2014-Jul-13 20:17N 41°05' E 001°17'0 0.0
2014-Jul-13 19:17N 41°05' E 001°17'0 0.1
2014-Jul-13 18:32N 41°05' E 001°17'0 0.1
2014-Jul-13 17:26N 41°05' E 001°17'0 0.0
2014-Jul-13 16:29N 41°05' E 001°17'0 0.0
2014-Jul-13 14:23N 41°05' E 001°17'0 0.0
2014-Jul-13 02:17N 41°05' E 001°17'0 0.0
2014-Jul-13 01:05N 41°05' E 001°17'0 0.0
2014-Jul-13 00:29N 41°05' E 001°17'0 0.0
2014-Jul-12 23:29N 41°05' E 001°17'  

Dump ship's entire track history